createdAt,value
2022-12-06T00:01:16.433Z,30.67
2022-12-06T00:03:45.202Z,29.45
2022-12-06T00:06:17.816Z,27.48
2022-12-06T00:08:45.321Z,27.38
2022-12-06T00:11:15.816Z,25.58
2022-12-06T00:13:43.451Z,26.15
2022-12-06T00:16:12.870Z,27.20
2022-12-06T00:18:41.371Z,26.77
2022-12-06T00:21:20.863Z,26.55
2022-12-06T00:23:50.413Z,25.42
2022-12-06T00:26:17.827Z,25.80
2022-12-06T00:28:45.226Z,25.67
2022-12-06T00:31:19.569Z,25.85
2022-12-06T00:33:46.338Z,26.63
2022-12-06T00:36:20.249Z,25.67
2022-12-06T00:38:48.235Z,26.40
2022-12-06T00:41:17.098Z,25.52
2022-12-06T00:43:44.316Z,23.40
2022-12-06T00:46:14.478Z,22.48
2022-12-06T00:48:41.263Z,23.42
2022-12-06T00:51:08.219Z,24.77
2022-12-06T00:53:35.176Z,25.15
2022-12-06T00:56:02.271Z,24.92
2022-12-06T00:58:29.033Z,25.05
2022-12-06T01:00:55.863Z,24.25
2022-12-06T01:03:23.095Z,25.88
2022-12-06T01:05:50.861Z,25.42
2022-12-06T01:08:18.999Z,25.38
2022-12-06T01:10:55.132Z,25.60
2022-12-06T01:13:22.005Z,25.75
2022-12-06T01:15:48.997Z,24.52
2022-12-06T01:18:16.064Z,24.98
2022-12-06T01:20:42.932Z,24.55
2022-12-06T01:23:09.702Z,25.15
2022-12-06T01:25:36.737Z,24.23
2022-12-06T01:28:03.858Z,23.08
2022-12-06T01:30:30.976Z,23.75
2022-12-06T01:32:57.797Z,24.40
2022-12-06T01:35:27.312Z,25.23
2022-12-06T01:37:54.250Z,27.80
2022-12-06T01:40:20.902Z,26.65
2022-12-06T01:42:47.574Z,28.17
2022-12-06T01:45:14.227Z,24.98
2022-12-06T01:47:43.843Z,24.75
2022-12-06T01:50:19.837Z,25.55
2022-12-06T01:53:15.986Z,25.20
2022-12-06T01:55:42.724Z,25.60
2022-12-06T01:58:15.528Z,24.75
2022-12-06T02:00:42.215Z,25.35
2022-12-06T02:03:17.342Z,26.02
2022-12-06T02:05:44.452Z,26.98
2022-12-06T02:08:13.274Z,26.63
2022-12-06T02:10:40.507Z,28.73
2022-12-06T02:13:07.969Z,26.60
2022-12-06T02:16:24.082Z,25.00
2022-12-06T02:18:59.891Z,24.00
2022-12-06T02:21:50.851Z,24.05
2022-12-06T02:24:46.234Z,25.30
2022-12-06T02:27:43.238Z,25.98
2022-12-06T02:30:09.948Z,23.23
2022-12-06T02:32:54.501Z,22.35
2022-12-06T02:35:35.370Z,23.02
2022-12-06T02:38:07.726Z,24.63
2022-12-06T02:40:45.916Z,26.27
2022-12-06T02:43:17.410Z,24.88
2022-12-06T02:45:48.805Z,26.65
2022-12-06T02:48:18.012Z,26.58
2022-12-06T02:50:54.785Z,28.92
2022-12-06T02:53:23.960Z,27.38
2022-12-06T02:55:52.049Z,26.83
2022-12-06T02:58:19.135Z,25.65
2022-12-06T03:00:51.635Z,26.88
2022-12-06T03:03:26.612Z,25.70
2022-12-06T03:06:02.417Z,26.27
2022-12-06T03:08:56.698Z,25.33
2022-12-06T03:11:28.745Z,25.40
2022-12-06T03:14:05.488Z,26.60
2022-12-06T03:16:49.454Z,27.45
2022-12-06T03:19:20.493Z,26.17
2022-12-06T03:21:50.352Z,27.15
2022-12-06T03:24:17.523Z,26.75
2022-12-06T03:26:47.372Z,25.33
2022-12-06T03:29:16.339Z,26.80
2022-12-06T03:31:44.864Z,26.33
2022-12-06T03:34:22.923Z,27.48
2022-12-06T03:36:51.611Z,25.88
2022-12-06T03:39:31.219Z,27.23
2022-12-06T03:42:00.843Z,27.83
2022-12-06T03:44:27.521Z,27.42
2022-12-06T03:47:01.560Z,29.90
2022-12-06T03:49:36.476Z,30.80
2022-12-06T03:52:04.246Z,30.52
2022-12-06T03:54:30.888Z,30.83
2022-12-06T03:56:57.609Z,32.45
2022-12-06T03:59:24.292Z,32.17
2022-12-06T04:01:51.081Z,31.67
2022-12-06T04:04:17.878Z,32.55
2022-12-06T04:06:44.651Z,32.50
2022-12-06T04:09:11.290Z,31.40
2022-12-06T04:11:37.919Z,31.80
2022-12-06T04:14:04.557Z,32.25
2022-12-06T04:16:31.213Z,31.75
2022-12-06T04:18:57.870Z,33.67
2022-12-06T04:21:24.649Z,27.88
2022-12-06T04:23:51.978Z,25.77
2022-12-06T04:26:21.213Z,22.80
2022-12-06T04:28:48.648Z,24.00
2022-12-06T04:31:21.519Z,22.08
2022-12-06T04:33:49.158Z,21.33
2022-12-06T04:36:15.986Z,22.65
2022-12-06T04:38:42.934Z,22.05
2022-12-06T04:41:12.981Z,20.98
2022-12-06T04:43:39.660Z,20.45
2022-12-06T04:46:06.531Z,19.67
2022-12-06T04:48:33.213Z,19.77
2022-12-06T04:51:00.494Z,18.40
2022-12-06T04:53:27.135Z,20.65
2022-12-06T04:55:53.929Z,18.88
2022-12-06T04:58:20.723Z,19.50
2022-12-06T05:00:49.814Z,19.20
2022-12-06T05:03:16.596Z,18.58
2022-12-06T05:05:43.276Z,18.77
2022-12-06T05:08:10.206Z,18.42
2022-12-06T05:10:37.142Z,16.95
2022-12-06T05:13:05.105Z,16.02
2022-12-06T05:15:32.285Z,14.52
2022-12-06T05:17:59.093Z,14.25
2022-12-06T05:20:26.441Z,14.52
2022-12-06T05:22:53.079Z,13.85
2022-12-06T05:25:19.811Z,13.43
2022-12-06T05:27:46.532Z,12.70
2022-12-06T05:30:13.690Z,14.20
2022-12-06T05:32:40.874Z,13.05
2022-12-06T05:35:08.228Z,13.02
2022-12-06T05:37:34.874Z,12.98
2022-12-06T05:40:01.912Z,13.60
2022-12-06T05:42:28.986Z,12.80
2022-12-06T05:44:55.687Z,13.63
2022-12-06T05:47:22.365Z,13.07
2022-12-06T05:49:49.018Z,13.50
2022-12-06T05:52:15.691Z,13.77
2022-12-06T05:54:42.418Z,13.10
2022-12-06T05:57:09.099Z,14.43
2022-12-06T05:59:37.138Z,14.15
2022-12-06T06:02:04.001Z,13.82
2022-12-06T06:04:33.899Z,14.18
2022-12-06T06:07:00.757Z,13.93
2022-12-06T06:09:27.589Z,13.65
2022-12-06T06:11:55.540Z,14.35
2022-12-06T06:14:22.827Z,15.90
2022-12-06T06:16:49.596Z,16.48
2022-12-06T06:19:16.380Z,16.25
2022-12-06T06:21:43.053Z,16.30
2022-12-06T06:24:09.747Z,16.80
2022-12-06T06:26:36.589Z,16.45
2022-12-06T06:29:03.272Z,17.20
2022-12-06T06:31:30.117Z,18.67
2022-12-06T06:33:56.953Z,17.33
2022-12-06T06:36:23.616Z,17.40
2022-12-06T06:38:50.326Z,17.88
2022-12-06T06:41:17.053Z,17.75
2022-12-06T06:43:43.698Z,18.52
2022-12-06T06:46:10.407Z,17.58
2022-12-06T06:48:39.493Z,18.48
2022-12-06T06:51:08.585Z,17.95
2022-12-06T06:53:35.908Z,18.17
2022-12-06T06:56:02.647Z,16.77
2022-12-06T06:58:29.330Z,16.15
2022-12-06T07:00:59.205Z,16.73
2022-12-06T07:03:26.733Z,16.52
2022-12-06T07:05:59.075Z,16.30
2022-12-06T07:08:27.789Z,16.10
2022-12-06T07:10:54.694Z,16.08
2022-12-06T07:13:22.931Z,16.20
2022-12-06T07:15:49.840Z,16.05
2022-12-06T07:18:17.600Z,15.57
2022-12-06T07:20:45.737Z,14.65
2022-12-06T07:23:13.096Z,14.18
2022-12-06T07:25:39.967Z,14.50
2022-12-06T07:28:06.661Z,14.15
2022-12-06T07:30:33.728Z,14.40
2022-12-06T07:33:00.614Z,13.98
2022-12-06T07:35:48.405Z,14.60
2022-12-06T07:38:14.071Z,14.40
2022-12-06T07:41:03.516Z,14.75
2022-12-06T07:43:27.427Z,14.73
2022-12-06T07:45:54.131Z,13.95
2022-12-06T07:48:20.804Z,14.30
2022-12-06T07:50:47.508Z,14.50
2022-12-06T07:53:14.205Z,12.93
2022-12-06T07:55:40.865Z,13.52
2022-12-06T07:58:07.684Z,13.43
2022-12-06T08:00:34.396Z,13.32
2022-12-06T08:03:01.045Z,12.23
2022-12-06T08:05:27.835Z,12.63
2022-12-06T08:07:54.577Z,12.70
2022-12-06T08:10:21.388Z,12.73
2022-12-06T08:12:48.227Z,11.60
2022-12-06T08:15:14.994Z,12.13
2022-12-06T08:17:41.684Z,12.30
2022-12-06T08:20:09.722Z,12.48
2022-12-06T08:22:36.397Z,12.80
2022-12-06T08:25:03.796Z,12.32
2022-12-06T08:27:30.492Z,13.35
2022-12-06T08:29:57.237Z,12.35
2022-12-06T08:32:27.079Z,13.20
2022-12-06T08:34:54.012Z,13.65
2022-12-06T08:37:20.693Z,14.35
2022-12-06T08:39:47.367Z,13.68
2022-12-06T08:42:14.048Z,14.85
2022-12-06T08:44:40.705Z,15.00
2022-12-06T08:47:07.384Z,15.73
2022-12-06T08:49:34.194Z,15.00
2022-12-06T08:52:01.141Z,14.50
2022-12-06T08:54:28.700Z,13.88
2022-12-06T08:56:55.399Z,13.48
2022-12-06T08:59:22.140Z,12.23
2022-12-06T09:01:48.964Z,11.82
2022-12-06T09:04:15.769Z,9.40
2022-12-06T09:06:43.870Z,9.02
2022-12-06T09:09:12.347Z,8.98
2022-12-06T09:11:40.372Z,8.80
2022-12-06T09:14:08.628Z,10.07
2022-12-06T09:16:35.425Z,9.63
2022-12-06T09:19:02.252Z,8.57
2022-12-06T09:21:29.247Z,9.02
2022-12-06T09:23:57.621Z,8.60
2022-12-06T09:26:25.434Z,9.15
2022-12-06T09:28:53.567Z,9.82
2022-12-06T09:31:20.500Z,9.30
2022-12-06T09:33:47.716Z,9.38
2022-12-06T09:36:24.060Z,9.18
2022-12-06T09:38:56.646Z,8.90
2022-12-06T09:41:54.075Z,10.02
2022-12-06T09:44:20.892Z,9.18
2022-12-06T09:47:32.376Z,9.73
2022-12-06T09:50:20.091Z,10.85
2022-12-06T09:53:04.447Z,10.52
2022-12-06T09:55:45.949Z,11.57
2022-12-06T09:58:27.819Z,10.90
2022-12-06T10:00:54.443Z,11.25
2022-12-06T10:03:39.235Z,10.80
2022-12-06T10:06:14.092Z,11.25
2022-12-06T10:08:43.731Z,11.33
2022-12-06T10:11:34.909Z,10.52
2022-12-06T10:14:22.474Z,10.52
2022-12-06T10:17:10.327Z,11.05
2022-12-06T10:19:52.071Z,10.75
2022-12-06T10:22:49.481Z,11.05
2022-12-06T10:25:25.776Z,10.55
2022-12-06T10:28:13.661Z,10.32
2022-12-06T10:31:04.711Z,10.15
2022-12-06T10:33:48.380Z,11.05
2022-12-06T10:36:23.775Z,11.10
2022-12-06T10:39:04.926Z,11.10
2022-12-06T10:41:48.853Z,10.20
2022-12-06T10:44:28.069Z,10.48
2022-12-06T10:47:21.532Z,10.80
2022-12-06T10:50:18.053Z,11.15
2022-12-06T10:55:24.623Z,12.20
2022-12-06T10:58:09.383Z,11.23
2022-12-06T11:00:50.725Z,10.45
2022-12-06T11:03:52.590Z,10.27
2022-12-06T11:06:32.307Z,11.73
2022-12-06T11:09:10.241Z,10.38
2022-12-06T11:11:39.338Z,11.65
2022-12-06T11:14:31.969Z,11.40
2022-12-06T11:17:21.814Z,10.80
2022-12-06T11:20:00.289Z,11.35
2022-12-06T11:22:52.263Z,12.50
2022-12-06T11:26:04.191Z,12.63
2022-12-06T11:28:36.125Z,13.55
2022-12-06T11:31:11.214Z,13.77
2022-12-06T11:33:37.946Z,14.57
2022-12-06T11:36:08.378Z,13.80
2022-12-06T11:38:38.678Z,15.68
2022-12-06T11:41:10.065Z,15.60
2022-12-06T11:43:37.623Z,14.93
2022-12-06T11:46:06.918Z,14.50
2022-12-06T11:48:35.982Z,15.18
2022-12-06T11:51:03.076Z,15.80
2022-12-06T11:53:47.633Z,15.07
2022-12-06T11:56:24.901Z,14.02
2022-12-06T11:59:22.683Z,13.30
2022-12-06T12:01:51.021Z,13.63
2022-12-06T12:04:36.659Z,14.93
2022-12-06T12:07:09.430Z,13.07
2022-12-06T12:10:00.356Z,13.70
2022-12-06T12:12:38.664Z,14.43
2022-12-06T12:15:06.113Z,15.13
2022-12-06T12:17:33.923Z,15.07
2022-12-06T12:20:09.000Z,13.73
2022-12-06T12:22:40.270Z,12.77
2022-12-06T12:25:27.255Z,12.25
2022-12-06T12:27:56.741Z,11.50
2022-12-06T12:30:40.385Z,11.90
2022-12-06T12:33:07.069Z,12.40
2022-12-06T12:35:35.357Z,13.30
2022-12-06T12:38:24.825Z,12.00
2022-12-06T12:40:55.909Z,11.77
2022-12-06T12:43:30.226Z,10.27
2022-12-06T12:46:11.977Z,10.30
2022-12-06T12:48:40.965Z,11.60
2022-12-06T12:51:37.059Z,11.23
2022-12-06T12:54:18.623Z,10.60
2022-12-06T12:56:45.298Z,11.05
2022-12-06T12:59:15.732Z,10.50
2022-12-06T13:01:46.178Z,10.48
2022-12-06T13:04:15.942Z,10.30
2022-12-06T13:06:54.257Z,9.75
2022-12-06T13:09:43.879Z,10.30
2022-12-06T13:12:20.537Z,9.25
2022-12-06T13:14:53.696Z,8.30
2022-12-06T13:17:25.046Z,8.45
2022-12-06T13:19:53.766Z,6.95
2022-12-06T13:22:26.149Z,6.65
2022-12-06T13:25:05.929Z,6.30
2022-12-06T13:27:45.393Z,7.00
2022-12-06T13:30:19.843Z,6.75
2022-12-06T13:33:05.439Z,6.63
2022-12-06T13:35:37.320Z,6.88
2022-12-06T13:38:26.659Z,7.50
2022-12-06T13:40:55.830Z,7.88
2022-12-06T13:43:25.548Z,8.02
2022-12-06T13:46:07.596Z,7.72
2022-12-06T13:48:39.384Z,7.28
2022-12-06T13:51:32.110Z,7.30
2022-12-06T13:54:04.808Z,8.00
2022-12-06T13:56:39.735Z,7.95
2022-12-06T13:59:12.237Z,8.40
2022-12-06T14:01:56.094Z,7.55
2022-12-06T14:06:56.827Z,9.52
2022-12-06T14:09:25.062Z,10.13
2022-12-06T14:11:52.213Z,10.23
2022-12-06T14:14:24.524Z,10.10
2022-12-06T14:16:56.802Z,11.10
2022-12-06T14:19:40.531Z,10.02
2022-12-06T14:22:34.503Z,9.07
2022-12-06T14:25:17.724Z,9.88
2022-12-06T14:27:49.145Z,10.32
2022-12-06T14:30:26.109Z,9.63
2022-12-06T14:32:55.566Z,10.00
2022-12-06T14:35:31.965Z,11.02
2022-12-06T14:38:02.002Z,10.32
2022-12-06T14:40:47.800Z,10.45
2022-12-06T14:43:17.283Z,11.00
2022-12-06T14:45:45.095Z,12.05
2022-12-06T14:48:13.041Z,11.82
2022-12-06T14:50:51.205Z,12.52
2022-12-06T14:53:35.685Z,11.23
2022-12-06T14:56:26.956Z,13.70
2022-12-06T14:58:56.395Z,13.70
2022-12-06T15:01:27.660Z,13.10
2022-12-06T15:03:58.563Z,12.48
2022-12-06T15:06:26.889Z,11.32
2022-12-06T15:08:59.345Z,12.30
2022-12-06T15:11:28.873Z,11.55
2022-12-06T15:14:18.201Z,11.00
2022-12-06T15:16:55.266Z,12.00
2022-12-06T15:19:22.496Z,12.98
2022-12-06T15:21:53.353Z,13.82
2022-12-06T15:24:22.621Z,13.40
2022-12-06T15:26:49.866Z,13.77
2022-12-06T15:29:17.063Z,13.75
2022-12-06T15:31:49.463Z,14.05
2022-12-06T15:34:26.678Z,15.38
2022-12-06T15:37:15.237Z,15.07
2022-12-06T15:39:42.117Z,14.55
2022-12-06T15:42:21.113Z,14.50
2022-12-06T15:44:49.996Z,14.43
2022-12-06T15:47:18.009Z,14.40
2022-12-06T15:49:44.693Z,14.85
2022-12-06T15:52:19.850Z,13.43
2022-12-06T15:54:46.509Z,14.77
2022-12-06T15:57:15.960Z,15.40
2022-12-06T15:59:42.652Z,13.45
2022-12-06T16:02:14.919Z,12.23
2022-12-06T16:04:41.648Z,12.48
2022-12-06T16:07:08.605Z,12.20
2022-12-06T16:09:35.346Z,12.27
2022-12-06T16:12:02.063Z,11.68
2022-12-06T16:14:28.745Z,12.40
2022-12-06T16:16:55.691Z,11.93
2022-12-06T16:19:22.431Z,12.65
2022-12-06T16:21:54.507Z,12.82
2022-12-06T16:24:21.284Z,12.55
2022-12-06T16:26:48.279Z,14.27
2022-12-06T16:29:21.201Z,14.18
2022-12-06T16:31:48.631Z,14.10
2022-12-06T16:34:21.671Z,15.70
2022-12-06T16:36:57.367Z,16.00
2022-12-06T16:41:51.125Z,16.42
2022-12-06T16:44:17.780Z,17.85
2022-12-06T16:46:44.557Z,18.58
2022-12-06T16:49:45.373Z,15.82
2022-12-06T16:52:09.602Z,17.05
2022-12-06T16:54:36.292Z,18.90
2022-12-06T16:57:02.939Z,18.55
2022-12-06T16:59:29.585Z,18.17
2022-12-06T17:01:56.347Z,17.90
2022-12-06T17:04:23.031Z,15.95
2022-12-06T17:06:50.269Z,16.67
2022-12-06T17:09:16.951Z,16.92
2022-12-06T17:11:43.702Z,16.27
2022-12-06T17:14:11.178Z,14.63
2022-12-06T17:16:39.457Z,13.80
2022-12-06T17:19:08.128Z,11.00
2022-12-06T17:21:35.244Z,11.75
2022-12-06T17:24:01.980Z,9.32
2022-12-06T17:26:30.271Z,10.02
2022-12-06T17:28:58.623Z,10.43
2022-12-06T17:31:26.098Z,9.70
2022-12-06T17:33:53.822Z,8.27
2022-12-06T17:36:25.077Z,9.00
2022-12-06T17:38:55.470Z,9.07
2022-12-06T17:41:25.464Z,10.05
2022-12-06T17:43:52.122Z,10.68
2022-12-06T17:46:18.860Z,10.15
2022-12-06T17:48:45.620Z,11.02
2022-12-06T17:51:12.282Z,10.73
2022-12-06T17:53:39.309Z,11.90
2022-12-06T17:56:25.913Z,11.80
2022-12-06T17:58:53.901Z,11.88
2022-12-06T18:01:21.773Z,12.07
2022-12-06T18:03:53.282Z,11.82
2022-12-06T18:06:25.182Z,13.05
2022-12-06T18:08:52.132Z,12.55
2022-12-06T18:11:20.209Z,14.15
2022-12-06T18:13:47.254Z,14.48
2022-12-06T18:16:35.628Z,15.55
2022-12-06T18:19:08.551Z,15.48
2022-12-06T18:21:35.920Z,16.52
2022-12-06T18:24:25.775Z,17.05
2022-12-06T18:26:53.908Z,18.23
2022-12-06T18:29:22.338Z,18.33
2022-12-06T18:31:50.344Z,19.13
2022-12-06T18:34:18.154Z,19.45
2022-12-06T18:36:45.576Z,18.75
2022-12-06T18:39:16.079Z,21.30
2022-12-06T18:41:47.437Z,19.70
2022-12-06T18:44:14.202Z,21.00
2022-12-06T18:46:41.198Z,21.48
2022-12-06T18:49:09.231Z,21.70
2022-12-06T18:51:36.404Z,21.17
2022-12-06T18:54:04.197Z,21.85
2022-12-06T18:56:32.083Z,22.33
2022-12-06T18:59:00.014Z,21.33
2022-12-06T19:01:29.349Z,23.65
2022-12-06T19:03:58.300Z,22.73
2022-12-06T19:06:27.047Z,22.15
2022-12-06T19:08:56.218Z,21.50
2022-12-06T19:11:24.185Z,22.35
2022-12-06T19:13:57.942Z,23.02
2022-12-06T19:16:32.821Z,23.30
2022-12-06T19:19:01.066Z,23.08
2022-12-06T19:21:27.762Z,24.27
2022-12-06T19:23:55.811Z,23.58
2022-12-06T19:26:23.284Z,24.48
2022-12-06T19:28:50.130Z,24.35
2022-12-06T19:31:17.249Z,24.77
2022-12-06T19:33:45.776Z,24.00
2022-12-06T19:36:26.904Z,25.15
2022-12-06T19:38:58.489Z,23.95
2022-12-06T19:41:25.541Z,24.77
2022-12-06T19:43:52.201Z,24.83
2022-12-06T19:46:21.758Z,24.52
2022-12-06T19:48:49.256Z,24.15
2022-12-06T19:51:16.075Z,24.90
2022-12-06T19:53:43.162Z,24.63
2022-12-06T19:56:14.118Z,24.42
2022-12-06T19:58:41.360Z,24.27
2022-12-06T20:01:20.277Z,24.27
2022-12-06T20:03:47.846Z,23.45
2022-12-06T20:06:18.307Z,24.48
2022-12-06T20:08:46.061Z,23.60
2022-12-06T20:11:15.045Z,24.40
2022-12-06T20:16:22.581Z,23.52
2022-12-06T20:18:49.750Z,23.83
2022-12-06T20:21:16.441Z,23.58
2022-12-06T20:23:43.166Z,24.08
2022-12-06T20:26:10.003Z,25.50
2022-12-06T20:28:36.696Z,25.48
2022-12-06T20:31:13.465Z,24.88
2022-12-06T20:33:40.334Z,26.15
2022-12-06T20:36:14.852Z,25.17
2022-12-06T20:38:41.525Z,25.75
2022-12-06T20:41:20.272Z,23.90
2022-12-06T20:43:47.460Z,21.20
2022-12-06T20:46:16.826Z,22.83
2022-12-06T20:48:44.484Z,22.25
2022-12-06T20:51:13.859Z,21.55
2022-12-06T20:53:40.986Z,20.17
2022-12-06T20:56:11.468Z,19.50
2022-12-06T20:58:38.713Z,19.65
2022-12-06T21:01:06.104Z,20.85
2022-12-06T21:03:33.334Z,20.67
2022-12-06T21:06:01.101Z,20.73
2022-12-06T21:08:28.536Z,24.05
2022-12-06T21:11:21.749Z,23.02
2022-12-06T21:13:43.189Z,24.58
2022-12-06T21:16:18.100Z,23.48
2022-12-06T21:18:45.712Z,22.45
2022-12-06T21:21:21.793Z,23.15
2022-12-06T21:23:48.514Z,20.88
2022-12-06T21:26:15.232Z,22.45
2022-12-06T21:28:41.950Z,21.08
2022-12-06T21:31:08.651Z,22.20
2022-12-06T21:33:35.431Z,18.92
2022-12-06T21:36:04.557Z,20.65
2022-12-06T21:38:31.699Z,20.92
2022-12-06T21:41:04.752Z,20.88
2022-12-06T21:43:31.480Z,19.48
2022-12-06T21:46:10.499Z,18.35
2022-12-06T21:48:37.571Z,19.90
2022-12-06T21:51:07.315Z,18.33
2022-12-06T21:53:34.481Z,15.60
2022-12-06T21:56:06.395Z,15.07
2022-12-06T21:58:33.087Z,13.88
2022-12-06T22:01:11.368Z,13.85
2022-12-06T22:03:41.672Z,13.32
2022-12-06T22:06:12.577Z,12.45
2022-12-06T22:08:41.125Z,10.63
2022-12-06T22:11:13.889Z,10.10
2022-12-06T22:13:40.992Z,9.30
2022-12-06T22:16:09.858Z,9.32
2022-12-06T22:18:44.471Z,9.65
2022-12-06T22:21:18.018Z,8.65
2022-12-06T22:23:45.383Z,8.18
2022-12-06T22:26:18.094Z,8.40
2022-12-06T22:28:45.403Z,7.47
2022-12-06T22:31:24.981Z,7.82
2022-12-06T22:33:52.514Z,6.90
2022-12-06T22:36:20.807Z,6.88
2022-12-06T22:38:51.817Z,6.32
2022-12-06T22:41:19.892Z,6.22
2022-12-06T22:43:50.040Z,5.93
2022-12-06T22:46:17.159Z,6.57
2022-12-06T22:48:44.448Z,7.15
2022-12-06T22:51:13.810Z,8.65
2022-12-06T22:53:42.055Z,9.18
2022-12-06T22:56:09.556Z,10.07
2022-12-06T22:58:36.810Z,10.57
2022-12-06T23:01:16.666Z,11.25
2022-12-06T23:03:48.375Z,11.88
2022-12-06T23:06:16.838Z,12.18
2022-12-06T23:08:44.063Z,12.18
2022-12-06T23:11:13.355Z,10.30
2022-12-06T23:13:40.159Z,11.90
2022-12-06T23:16:10.793Z,12.77
2022-12-06T23:18:37.489Z,14.35
2022-12-06T23:21:10.801Z,30.83
2022-12-06T23:23:39.330Z,19.13
2022-12-06T23:26:08.461Z,20.17
2022-12-06T23:28:35.671Z,20.35
2022-12-06T23:31:04.865Z,21.92
2022-12-06T23:33:32.255Z,24.45
2022-12-06T23:36:11.539Z,26.98
2022-12-06T23:38:38.576Z,24.42
2022-12-06T23:41:11.476Z,22.15
2022-12-06T23:43:38.840Z,21.42
2022-12-06T23:46:08.121Z,23.45
2022-12-06T23:48:35.664Z,24.05
2022-12-06T23:51:03.743Z,22.02
2022-12-06T23:53:31.136Z,20.25
2022-12-06T23:56:07.970Z,20.67
2022-12-06T23:58:34.818Z,19.75
